• Join FlightAware (Why Join?)
  • Login
  • US Flag 
10:02AM EDT


 

Airport Tracker/Info


-or-


 

Live Flight TrackerFlight Track Log ✈ N66518 ✈ 27-Jun-2014 ✈ KRDU - KORL

Flight Track Log - Related Links

Times and Time Zones

All times are in EDT time to prevent confusion due to time zone crossing. See the N66518 flight status page for this flight to view local times or setup timezone preferences in your user account.

Time Position Orientation Groundspeed Altitude Reporting Facility
EDT Latitude Longitude Course Direction KTS MPH feet Rate Location/Type
10:19AM 35.8878 -78.7250 192° South 114 131 1,900  Level Washington Center
10:20AM 35.8781 -78.6914 110° East 133 153 2,500 720 Climbing Washington Center
10:21AM 35.8494 -78.6644 143° Southeast 146 168 3,300 660 Climbing Washington Center
10:22AM 35.8081 -78.6553 170° South 138 159 3,900 540 Climbing Washington Center
10:23AM 35.7628 -78.6356 161° South 168 193 4,500 600 Climbing Washington Center
10:24AM 35.7208 -78.6364 181° South 158 182 5,300 780 Climbing Washington Center
10:25AM 35.6045 -78.8906 192° South  Level Estimated
10:25AM 35.6831 -78.6531 200° South 149 171 6,100  Level Washington Center
10:26AM 35.6453 -78.6617 190° South 146 168 6,900 480 Climbing Washington Center
10:33AM 35.3758 -78.7456 184° South 168 193 9,900 240 Climbing Washington Center
10:37AM 35.1675 -78.8164 14° North 176 203 9,900  Level Washington Center
10:40AM 35.0372 -78.9253 210° Southwest 177 204 9,900  Level Washington Center
10:48AM 34.7272 -79.1778 208° Southwest 176 203 9,900  Level Washington Center
10:49AM 34.6981 -79.1491 208° Southwest  Level FlightAware Approximate
10:50AM 34.6562 -79.1767 208° Southwest  Level FlightAware Approximate
10:50AM 34.6590 -79.2033 197° South  Level Estimated
10:51AM 34.6143 -79.2041 208° Southwest  Level FlightAware Approximate
10:52AM 34.5724 -79.2316 208° Southwest  Level FlightAware Approximate
10:53AM 34.5305 -79.2590 208° Southwest  Level FlightAware Approximate
10:54AM 34.4885 -79.2864 208° Southwest  Level FlightAware Approximate
10:57AM 34.3403 -79.3220 197° South  Level Estimated
10:58AM 34.3033 -79.3583 219° Southwest  Level FlightAware Approximate
10:59AM 34.2664 -79.3946 219° Southwest  Level FlightAware Approximate
11:00AM 34.2294 -79.4309 219° Southwest  Level FlightAware Approximate
11:01AM 34.1924 -79.4671 219° Southwest  Level FlightAware Approximate
11:02AM 34.1554 -79.5033 219° Southwest  Level FlightAware Approximate
11:03AM 34.1184 -79.5395 219° Southwest  Level FlightAware Approximate
11:04AM 34.0813 -79.5757 219° Southwest  Level FlightAware Approximate
11:05AM 34.0443 -79.6118 219° Southwest  Level FlightAware Approximate
11:06AM 34.0072 -79.6479 219° Southwest  Level FlightAware Approximate
11:07AM 33.9702 -79.6839 219° Southwest  Level FlightAware Approximate
11:08AM 33.9331 -79.7199 219° Southwest  Level FlightAware Approximate
11:09AM 33.8960 -79.7559 219° Southwest  Level FlightAware Approximate
11:10AM 33.8589 -79.7919 219° Southwest  Level FlightAware Approximate
11:11AM 33.8207 -79.8293 220° Southwest  Level FlightAware Approximate
11:12AM 33.7831 -79.8643 215° Southwest  Level FlightAware Approximate
11:13AM 33.7442 -79.8973 215° Southwest  Level FlightAware Approximate
11:14AM 33.7052 -79.9303 215° Southwest  Level FlightAware Approximate
11:15AM 33.6663 -79.9633 215° Southwest  Level FlightAware Approximate
11:16AM 33.6274 -79.9962 215° Southwest  Level FlightAware Approximate
11:17AM 33.5884 -80.0291 215° Southwest  Level FlightAware Approximate
11:18AM 33.5495 -80.0620 215° Southwest  Level FlightAware Approximate
11:19AM 33.5106 -80.0950 215° Southwest  Level FlightAware Approximate
11:20AM 33.4717 -80.1279 215° Southwest  Level FlightAware Approximate
11:21AM 33.4328 -80.1608 215° Southwest  Level FlightAware Approximate
11:22AM 33.3939 -80.1937 215° Southwest  Level FlightAware Approximate
11:23AM 33.3548 -80.2262 214° Southwest  Level FlightAware Approximate
11:24AM 33.3153 -80.2580 214° Southwest  Level FlightAware Approximate
11:25AM 33.2758 -80.2898 214° Southwest  Level FlightAware Approximate
11:26AM 33.2363 -80.3215 214° Southwest  Level FlightAware Approximate
11:27AM 33.1967 -80.3532 214° Southwest  Level FlightAware Approximate
11:28AM 33.1572 -80.3849 214° Southwest  Level FlightAware Approximate
11:29AM 33.1176 -80.4166 214° Southwest  Level FlightAware Approximate
11:30AM 33.0781 -80.4482 214° Southwest  Level FlightAware Approximate
11:31AM 33.0385 -80.4798 214° Southwest  Level FlightAware Approximate
11:32AM 32.9989 -80.5114 214° Southwest  Level FlightAware Approximate
11:33AM 32.9593 -80.5430 214° Southwest  Level FlightAware Approximate
11:34AM 32.9197 -80.5745 214° Southwest  Level FlightAware Approximate
11:35AM 32.8801 -80.6060 214° Southwest  Level FlightAware Approximate
11:36AM 32.8405 -80.6373 214° Southwest  Level FlightAware Approximate
11:37AM 32.8008 -80.6686 213° Southwest  Level FlightAware Approximate
11:38AM 32.7610 -80.6998 213° Southwest  Level FlightAware Approximate
11:39AM 32.7213 -80.7310 213° Southwest  Level FlightAware Approximate
11:40AM 32.6816 -80.7622 213° Southwest  Level FlightAware Approximate
11:41AM 32.6418 -80.7933 213° Southwest  Level FlightAware Approximate
11:42AM 32.6019 -80.8242 213° Southwest  Level FlightAware Approximate
11:43AM 32.5620 -80.8550 213° Southwest  Level FlightAware Approximate
11:44AM 32.5221 -80.8857 213° Southwest  Level FlightAware Approximate
11:45AM 32.4821 -80.9164 213° Southwest  Level FlightAware Approximate
11:46AM 32.4422 -80.9471 213° Southwest  Level FlightAware Approximate
11:47AM 32.4022 -80.9778 213° Southwest  Level FlightAware Approximate
11:48AM 32.3622 -81.0084 213° Southwest  Level FlightAware Approximate
11:49AM 32.3222 -81.0390 213° Southwest  Level FlightAware Approximate
11:50AM 32.2823 -81.0696 213° Southwest  Level FlightAware Approximate
11:51AM 32.2359 -81.0730 184° South  Level Estimated
11:52AM 32.1896 -81.0764 184° South  Level Estimated
11:53AM 32.1432 -81.0798 184° South  Level Estimated
11:54AM 32.0969 -81.0832 184° South  Level Estimated
11:55AM 32.0505 -81.0866 184° South  Level Estimated
11:56AM 32.0042 -81.0900 184° South  Level Estimated
11:57AM 31.9578 -81.0933 184° South  Level Estimated
11:58AM 31.9114 -81.0967 184° South  Level Estimated
11:59AM 31.8651 -81.1001 184° South  Level Estimated
11:59AM 31.6525 -80.9425 169° South 178 205 9,900  Level Jacksonville Center
12:00PM 31.8187 -81.1034 184° South  Level Estimated
12:00PM 31.6153 -80.9581 200° South 178 205 9,900  Level Jacksonville Center
12:01PM 31.7724 -81.1068 184° South  Level Estimated
12:01PM 31.5694 -80.9761 199° South 178 205 9,900  Level Jacksonville Center
12:02PM 31.7260 -81.1102 184° South  Level Estimated
12:02PM 31.5197 -81.0014 203° Southwest 178 205 9,900  Level Jacksonville Center
12:03PM 31.6804 -81.1002 169° South  Level FlightAware Approximate
12:03PM 31.4742 -81.0217 201° Southwest 178 205 9,900  Level Jacksonville Center
12:04PM 31.6347 -81.0902 169° South  Level FlightAware Approximate
12:04PM 31.4264 -81.0422 200° South 178 205 9,900  Level Jacksonville Center
12:05PM 31.3850 -81.0625 203° Southwest 178 205 9,900  Level Jacksonville Center
12:06PM 31.3372 -81.0831 200° South 188 216 9,900  Level Jacksonville Center
12:07PM 31.2853 -81.1058 201° Southwest 188 216 9,900  Level Jacksonville Center
12:08PM 31.2397 -81.1261 201° Southwest 188 216 9,900  Level Jacksonville Center
12:09PM 31.1919 -81.1464 200° South 188 216 9,900  Level Jacksonville Center
12:10PM 31.1439 -81.1472 181° South 193 222 9,900  Level Jacksonville Center
12:11PM 31.0856 -81.1411 175° South 193 222 9,900  Level Jacksonville Center
12:12PM 31.0250 -81.1447 183° South 198 228 9,900  Level Jacksonville Center
12:13PM 30.9728 -81.1433 179° South 198 228 9,900  Level Jacksonville Center
12:14PM 30.9183 -81.1417 178° South 198 228 10,000  Climbing Jacksonville Center
12:15PM 30.8642 -81.1403 179° South 206 237 9,900 -120 Descending Jacksonville Center
12:15PM 30.8267 -81.1411 181° South 197 227 9,900  Level Jacksonville Center
12:16PM 30.8097 -81.1389 174° South 201 231 9,900  Level Jacksonville Center
12:16PM 30.7931 -81.1392 181° South 197 227 9,900  Level Jacksonville Center
12:17PM 30.7514 -81.1375 178° South 201 231 9,900  Level Jacksonville Center
12:17PM 30.7367 -81.1403 189° South 200 230 9,900  Level Jacksonville Center
12:18PM 30.6969 -81.1361 175° South 201 231 9,900  Level Jacksonville Center
12:18PM 30.6803 -81.1367 182° South 199 229 9,900  Level Jacksonville Center
12:19PM 30.6447 -81.1347 177° South 195 224 9,900  Level Jacksonville Center
12:19PM 30.6281 -81.1350 181° South 200 230 9,900  Level Jacksonville Center
12:20PM 30.5883 -81.1333 178° South 195 224 9,900  Level Jacksonville Center
12:20PM 30.5739 -81.1336 181° South 199 229 9,900  Level Jacksonville Center
12:21PM 30.5300 -81.1344 181° South 200 230 9,900  Level Jacksonville Center
12:21PM 30.5197 -81.1369 192° South 198 228 9,900  Level Jacksonville Center
12:22PM 30.4758 -81.1356 178° South 200 230 9,900  Level Jacksonville Center
12:22PM 30.4506 -81.1336 176° South 200 230 9,900  Level Jacksonville Center
12:23PM 30.4192 -81.1317 177° South 200 230 9,900  Level Jacksonville Center
12:23PM 30.3983 -81.1344 187° South 201 231 9,900  Level Jacksonville Center
12:24PM 30.3631 -81.1328 178° South 200 230 9,900  Level Jacksonville Center
12:24PM 30.3442 -81.1331 181° South 199 229 9,900  Level Jacksonville Center
12:25PM 30.3086 -81.1314 178° South 200 230 9,900  Level Jacksonville Center
12:25PM 30.2772 -81.1319 181° South 199 229 9,900  Level Jacksonville Center
12:26PM 30.2231 -81.1306 179° South 196 226 9,900  Level Jacksonville Center
12:27PM 30.1708 -81.1292 179° South 201 231 9,900  Level Jacksonville Center
12:28PM 30.1144 -81.1253 177° South 201 231 9,900  Level Jacksonville Center
12:29PM 30.0581 -81.1286 183° South 200 230 9,900  Level Jacksonville Center
12:30PM 30.0225 -81.1269 178° South 198 228 10,000 60 Climbing Jacksonville Center
12:31PM 29.9808 -81.1253 178° South 197 227 10,000  Level Jacksonville Center
12:32PM 29.9244 -81.1264 181° South 198 228 10,000  Level Jacksonville Center
12:33PM 29.8658 -81.1250 179° South 198 228 10,000  Level Jacksonville Center
12:34PM 29.8136 -81.1236 179° South 198 228 10,000  Level Jacksonville Center
12:35PM 29.7594 -81.1244 181° South 198 228 10,000 -60 Level Jacksonville Center
12:36PM 29.7008 -81.1208 177° South 198 228 9,900 -300 Descending Jacksonville Center
12:37PM 29.6425 -81.1219 181° South 209 241 9,400 -720 Descending Jacksonville Center
12:38PM 29.5778 -81.1183 177° South 222 255 8,500 -780 Descending Jacksonville Center
12:39PM 29.5172 -81.1194 181° South 224 258 7,900 -300 Descending Jacksonville Center
12:40PM 29.4589 -81.1181 179° South 196 226 7,900 -300 Level Jacksonville Center
12:41PM 29.4025 -81.1167 179° South 199 229 7,300 -660 Descending Jacksonville Center
12:42PM 29.3439 -81.1178 181° South 216 249 6,600 -780 Descending Jacksonville Center
12:43PM 29.2917 -81.1164 179° South 206 237 5,800 -780 Descending Jacksonville Center
12:44PM 29.2336 -81.1339 195° South 190 219 5,100 -840 Descending Jacksonville Center
12:45PM 29.1794 -81.1539 198° South 196 226 4,100 -420 Descending Jacksonville Center
12:47PM 29.0833 -81.1333 169° South 170 196 3,900 -60 Descending Orlando TRACON
12:48PM 29.0167 -81.1667 204° Southwest 171 197 3,900  Level Orlando TRACON
12:49PM 28.9833 -81.1833 204° Southwest 168 193 3,900  Level Orlando TRACON
12:50PM 28.9333 -81.1833 180° South 164 189 3,900  Level Orlando TRACON
12:51PM 28.9000 -81.2000 204° Southwest 170 196 4,000  Climbing Orlando TRACON
12:52PM 28.8667 -81.1667 139° Southeast 164 189 4,000 -360 Level Orlando TRACON
12:53PM 28.8167 -81.1500 164° South 181 208 3,400 -540 Descending Orlando TRACON
12:54PM 28.7667 -81.1667 196° South 180 207 2,900 -240 Descending Orlando TRACON
12:55PM 28.7167 -81.1500 164° South 147 169 3,000  Climbing Orlando TRACON
12:56PM 28.6833 -81.1167 139° Southeast 149 171 2,900  Descending Orlando TRACON
12:57PM 28.6500 -81.1000 156° South 146 168 3,000  Climbing Orlando TRACON
12:58PM 28.6333 -81.1000 180° South 149 171 3,000 -60 Level Orlando TRACON
12:59PM 28.6167 -81.1500 249° West 119 137 2,900 -180 Descending Orlando TRACON
01:00PM 28.6000 -81.1833 240° Southwest 115 132 2,700 -360 Descending Orlando TRACON
01:01PM 28.5833 -81.2167 240° Southwest 112 129 2,200 -600 Descending Orlando TRACON
01:02PM 28.5833 -81.2500 270° West 110 127 1,600 -660 Descending Orlando TRACON
01:03PM 28.5667 -81.2833 240° Southwest 108 124 900 -600 Descending Orlando TRACON
01:04PM 28.5500 -81.3000 221° Southwest 100 115 400 -540 Descending Orlando TRACON
01:06PM 28.5333 -81.3167 230° Southwest  Level FlightAware Approximate
01:13PM 28.5455 -81.3329 310° West  Level Estimated
01:14PM 28.5455 -81.3329 North  Level Estimated
01:15PM 28.5455 -81.3329 North  Level Estimated